Time;durP1;ratioP1;P1;durP2;ratioP2;P2;SDS_P1;SDS_P2;PMS_P1;PMS_P2;Temp;Humidity;BMP_temperature;BMP_pressure;BME280_temperature;BME280_humidity;BME280_pressure;Samples;Min_cycle;Max_cycle;Signal;HPM_P1;HPM_P2
2023/02/18 00:06:36;;;;;;;16.60;12.40;;;12.00;1.00;;;;;;6232528;22;20495;-86
2023/02/18 00:09:12;;;;;;;17.17;13.40;;;11.90;1.00;;;;;;6280551;22;20347;-87
2023/02/18 00:11:38;;;;;;;19.03;13.60;;;11.90;1.00;;;;;;6310511;22;21107;-86
2023/02/18 00:14:13;;;;;;;14.70;11.67;;;12.00;1.00;;;;;;6311309;22;20377;-86
2023/02/18 00:16:52;;;;;;;;;;;;;;;;;;;;;
2023/02/18 00:19:21;;;;;;;17.60;12.27;;;12.00;1.00;;;;;;6310804;22;20457;-86
2023/02/18 00:21:51;;;;;;;15.30;11.63;;;11.90;1.00;;;;;;6309616;22;20374;-87
2023/02/18 00:24:31;;;;;;;16.40;11.80;;;11.90;1.00;;;;;;6310625;22;20867;-86
2023/02/18 00:26:57;;;;;;;14.70;11.97;;;11.90;1.00;;;;;;6310753;22;20357;-86
2023/02/18 00:29:25;;;;;;;17.43;11.53;;;11.90;1.00;;;;;;6310979;22;20402;-86
2023/02/18 00:31:51;;;;;;;16.07;12.87;;;11.90;1.00;;;;;;6308820;22;20197;-86
2023/02/18 00:34:19;;;;;;;16.73;12.53;;;11.90;1.00;;;;;;6310053;22;20382;-87
2023/02/18 00:36:57;;;;;;;;;;;;;;;;;;;;;
2023/02/18 00:39:25;;;;;;;15.90;12.50;;;11.90;1.00;;;;;;6311032;22;20457;-86
2023/02/18 00:41:58;;;;;;;15.60;11.37;;;11.90;1.00;;;;;;6309191;22;20374;-87
2023/02/18 00:44:26;;;;;;;15.87;11.10;;;11.90;1.00;;;;;;6311342;22;20403;-86
2023/02/18 00:46:54;;;;;;;16.90;11.60;;;11.90;1.00;;;;;;6310095;22;20377;-86
2023/02/18 00:49:23;;;;;;;13.20;10.10;;;11.90;1.00;;;;;;6309567;22;20425;-86
2023/02/18 00:51:58;;;;;;;;;;;;;;;;;;;;;
2023/02/18 00:54:51;;;;;;;17.97;11.53;;;11.90;1.00;;;;;;6310603;22;20366;-86
2023/02/18 00:57:27;;;;;;;14.33;10.97;;;11.90;1.00;;;;;;6311209;22;20366;-86
2023/02/18 00:59:55;;;;;;;14.80;10.27;;;11.90;1.00;;;;;;6309286;22;20397;-86
2023/02/18 01:02:20;;;;;;;16.73;10.47;;;11.90;1.00;;;;;;6307736;22;20378;-88
2023/02/18 01:05:01;;;;;;;;;;;;;;;;;;;;;
2023/02/18 01:07:27;;;;;;;14.23;11.00;;;11.90;1.00;;;;;;6310335;22;20246;-86
2023/02/18 01:10:02;;;;;;;17.27;11.20;;;11.80;1.00;;;;;;6310210;22;20432;-87
2023/02/18 01:12:32;;;;;;;14.67;9.63;;;11.80;1.00;;;;;;6311703;22;20605;-86
2023/02/18 01:15:03;;;;;;;15.33;9.50;;;11.80;1.00;;;;;;6311562;22;20397;-86
2023/02/18 01:17:41;;;;;;;13.30;9.83;;;11.80;1.00;;;;;;6307806;22;20374;-86
2023/02/18 01:20:32;;;;;;;15.27;9.27;;;11.80;1.00;;;;;;6308025;22;20408;-86
2023/02/18 01:23:28;;;;;;;13.53;9.00;;;11.80;1.00;;;;;;6310390;22;20363;-86
2023/02/18 01:25:55;;;;;;;17.97;9.57;;;11.80;1.00;;;;;;6312263;22;20731;-87
2023/02/18 01:28:24;;;;;;;15.33;10.40;;;11.80;1.00;;;;;;6311848;22;20374;-86
2023/02/18 01:30:49;;;;;;;16.30;10.20;;;11.80;1.00;;;;;;6309386;22;20602;-86
2023/02/18 01:33:20;;;;;;;16.63;11.20;;;11.80;1.00;;;;;;6309741;22;20428;-86
2023/02/18 01:35:53;;;;;;;20.00;11.27;;;11.80;1.00;;;;;;6309961;22;20147;-87
2023/02/18 01:38:26;;;;;;;15.53;11.30;;;11.70;1.00;;;;;;6312954;22;20768;-86
2023/02/18 01:40:54;;;;;;;14.67;11.30;;;11.70;1.00;;;;;;6310130;22;20457;-86
2023/02/18 01:43:37;;;;;;;16.17;11.47;;;11.70;1.00;;;;;;6310919;22;20393;-87
2023/02/18 01:46:14;;;;;;;18.90;12.07;;;11.70;1.00;;;;;;6310863;22;20365;-87
2023/02/18 01:48:56;;;;;;;17.67;11.80;;;11.70;1.00;;;;;;6312138;22;20374;-88
2023/02/18 01:51:26;;;;;;;16.83;11.37;;;11.70;1.00;;;;;;6326984;22;20506;-89
2023/02/18 01:53:59;;;;;;;16.00;10.60;;;11.70;1.00;;;;;;6327994;22;20367;-87
2023/02/18 01:56:34;;;;;;;16.67;11.20;;;11.70;1.00;;;;;;6329284;22;20390;-87
2023/02/18 01:59:04;;;;;;;17.43;10.80;;;11.70;1.00;;;;;;6328949;22;20457;-88
2023/02/18 02:01:40;;;;;;;16.20;10.37;;;11.70;1.00;;;;;;6312855;22;20366;-85
2023/02/18 02:04:05;;;;;;;14.63;10.53;;;11.70;1.00;;;;;;6312093;22;20389;-87
2023/02/18 02:06:33;;;;;;;16.43;10.37;;;11.60;1.00;;;;;;6311796;22;20397;-86
2023/02/18 02:09:04;;;;;;;14.50;10.13;;;11.60;1.00;;;;;;6316949;22;20148;-86
2023/02/18 02:11:42;;;;;;;15.10;10.70;;;11.60;1.00;;;;;;6317719;22;20418;-86
2023/02/18 02:14:23;;;;;;;15.03;10.03;;;11.60;1.00;;;;;;6315361;22;20369;-86
2023/02/18 02:17:32;;;;;;;14.47;9.30;;;11.60;1.00;;;;;;6318477;22;20354;-87
2023/02/18 02:20:20;;;;;;;13.67;9.70;;;11.60;1.00;;;;;;6298704;22;20398;-87
2023/02/18 02:22:49;;;;;;;13.60;9.90;;;11.60;1.00;;;;;;6315524;22;20354;-88
2023/02/18 02:26:19;;;;;;;13.83;9.23;;;11.60;1.00;;;;;;6312739;22;20900;-86
2023/02/18 02:28:53;;;;;;;13.30;10.20;;;11.60;1.00;;;;;;6310250;22;20386;-87
2023/02/18 02:31:28;;;;;;;13.50;9.53;;;11.60;1.00;;;;;;6310456;22;20436;-86
2023/02/18 02:34:30;;;;;;;12.63;8.13;;;11.60;1.00;;;;;;6312409;22;20448;-86
2023/02/18 02:37:12;;;;;;;;;;;;;;;;;;;;;
2023/02/18 02:40:01;;;;;;;14.50;7.67;;;11.60;1.00;;;;;;6310653;22;20904;-87
2023/02/18 02:42:57;;;;;;;9.53;7.40;;;11.60;1.00;;;;;;6311784;22;20408;-86
2023/02/18 02:45:42;;;;;;;11.13;7.23;;;11.70;1.00;;;;;;6298846;22;20440;-87
2023/02/18 02:48:24;;;;;;;9.77;7.00;;;11.60;1.00;;;;;;6312980;22;20371;-86
2023/02/18 02:51:02;;;;;;;10.10;7.30;;;11.70;1.00;;;;;;6326802;22;20430;-85
2023/02/18 02:53:43;;;;;;;10.40;6.90;;;11.70;1.00;;;;;;6327472;22;20448;-86
2023/02/18 02:56:31;;;;;;;8.70;7.00;;;11.70;1.00;;;;;;6324887;22;20424;-86
2023/02/18 02:59:07;;;;;;;10.33;7.37;;;11.70;1.00;;;;;;6320491;22;20347;-86
2023/02/18 03:02:02;;;;;;;;;;;;;;;;;;;;;
2023/02/18 03:04:51;;;;;;;8.13;6.40;;;11.70;1.00;;;;;;6315644;22;20378;-86
2023/02/18 03:07:51;;;;;;;6.70;5.73;;;11.70;1.00;;;;;;6313170;22;20395;-86
2023/02/18 03:10:41;;;;;;;7.40;5.67;;;11.70;1.00;;;;;;6311745;22;20425;-86
2023/02/18 03:13:36;;;;;;;8.73;4.87;;;11.70;1.00;;;;;;6311937;22;20858;-87
2023/02/18 03:16:30;;;;;;;6.43;5.30;;;11.70;1.00;;;;;;6311783;22;20378;-86
2023/02/18 03:19:33;;;;;;;7.77;5.07;;;11.70;1.00;;;;;;6312478;22;20682;-87
2023/02/18 03:22:24;;;;;;;7.97;5.67;;;11.60;1.00;;;;;;6285315;22;20381;-86
2023/02/18 03:24:53;;;;;;;6.13;4.63;;;11.60;1.00;;;;;;6306296;22;20418;-87
2023/02/18 03:27:18;;;;;;;5.73;3.93;;;11.60;1.00;;;;;;6309574;22;20389;-87
2023/02/18 03:29:47;;;;;;;6.40;4.63;;;11.60;1.00;;;;;;6311940;22;20418;-86
2023/02/18 03:32:26;;;;;;;5.73;4.30;;;11.60;1.00;;;;;;6310789;22;20540;-87
2023/02/18 03:35:12;;;;;;;5.67;4.50;;;11.60;1.00;;;;;;6312280;22;20813;-86
2023/02/18 03:38:04;;;;;;;;;;;;;;;;;;;;;
2023/02/18 03:40:38;;;;;;;6.80;4.63;;;11.60;1.00;;;;;;6311791;22;20422;-87
2023/02/18 03:43:11;;;;;;;5.63;4.63;;;11.60;1.00;;;;;;6312302;22;20453;-86
2023/02/18 03:45:57;;;;;;;6.30;4.40;;;11.60;1.00;;;;;;6310283;22;20367;-86
2023/02/18 03:48:35;;;;;;;5.40;3.97;;;11.60;1.00;;;;;;6309919;22;20377;-86
2023/02/18 03:51:22;;;;;;;;;;;;;;;;;;;;;
2023/02/18 03:54:06;;;;;;;6.60;4.20;;;11.60;1.00;;;;;;6311688;22;20385;-87
2023/02/18 03:57:09;;;;;;;6.10;4.30;;;11.50;1.00;;;;;;6306690;22;20385;-86
2023/02/18 03:59:49;;;;;;;5.73;3.90;;;11.50;1.00;;;;;;6310942;22;20390;-87
2023/02/18 04:02:32;;;;;;;5.90;3.40;;;11.50;1.00;;;;;;6307969;22;20386;-86
2023/02/18 04:05:07;;;;;;;5.90;4.20;;;11.50;1.00;;;;;;6309115;22;20374;-87
2023/02/18 04:07:56;;;;;;;6.23;3.37;;;11.50;1.00;;;;;;6310444;22;20524;-86
2023/02/18 04:10:28;;;;;;;5.20;3.63;;;11.50;1.00;;;;;;6309772;22;20429;-87
2023/02/18 04:13:04;;;;;;;;;;;;;;;;;;;;;
2023/02/18 04:15:33;;;;;;;6.80;4.17;;;11.40;1.00;;;;;;6307567;22;20429;-86
2023/02/18 04:17:58;;;;;;;5.17;3.43;;;11.40;1.00;;;;;;6306347;22;20382;-88
2023/02/18 04:20:31;;;;;;;4.70;3.60;;;11.40;1.00;;;;;;6307640;22;20484;-86
2023/02/18 04:23:04;;;;;;;4.50;3.17;;;11.30;1.00;;;;;;6308937;22;20135;-86
2023/02/18 04:25:34;;;;;;;6.33;4.73;;;11.30;1.00;;;;;;6307397;22;20830;-87
2023/02/18 04:28:21;;;;;;;5.80;4.00;;;11.30;1.00;;;;;;6310223;22;20369;-86
2023/02/18 04:30:54;;;;;;;4.80;3.23;;;11.30;1.00;;;;;;6307320;22;20422;-87
2023/02/18 04:33:23;;;;;;;5.10;4.00;;;11.30;1.00;;;;;;6307186;22;20379;-85
2023/02/18 04:35:56;;;;;;;6.37;5.10;;;11.30;1.00;;;;;;6311076;22;20374;-86
2023/02/18 04:38:29;;;;;;;7.03;4.87;;;11.30;1.00;;;;;;6313167;22;20355;-86
2023/02/18 04:40:54;;;;;;;6.10;4.27;;;11.30;1.00;;;;;;6313633;22;20451;-87
2023/02/18 04:43:25;;;;;;;5.60;4.70;;;11.20;1.00;;;;;;6317442;22;20770;-86
2023/02/18 04:45:50;;;;;;;7.00;5.30;;;11.20;1.00;;;;;;6316973;22;20608;-86
2023/02/18 04:48:28;;;;;;;;;;;;;;;;;;;;;
2023/02/18 04:50:56;;;;;;;8.70;6.10;;;11.20;1.00;;;;;;6318284;22;20198;-86
2023/02/18 04:53:21;;;;;;;6.83;5.13;;;11.20;1.00;;;;;;6319069;22;20373;-86
2023/02/18 04:55:51;;;;;;;7.90;5.40;;;11.20;1.00;;;;;;6318708;22;20386;-88
2023/02/18 04:58:20;;;;;;;7.90;5.63;;;11.20;1.00;;;;;;6317698;22;20533;-86
2023/02/18 05:00:53;;;;;;;7.30;5.00;;;11.20;1.00;;;;;;6316881;22;20401;-87
2023/02/18 05:03:18;;;;;;;7.30;5.57;;;11.10;1.00;;;;;;6318257;22;20357;-87
2023/02/18 05:05:44;;;;;;;8.90;5.93;;;11.10;1.00;;;;;;6314278;22;20724;-86
2023/02/18 05:08:10;;;;;;;7.60;6.17;;;11.10;1.00;;;;;;6316029;22;20648;-87
2023/02/18 05:10:39;;;;;;;8.00;6.27;;;11.10;1.00;;;;;;6316324;22;20464;-86
2023/02/18 05:13:05;;;;;;;11.30;6.10;;;11.10;1.00;;;;;;6316182;22;20381;-86
2023/02/18 05:15:33;;;;;;;8.17;5.73;;;11.10;1.00;;;;;;6315486;22;20390;-88
2023/02/18 05:18:01;;;;;;;7.53;5.20;;;11.10;1.00;;;;;;6316473;22;20155;-88
2023/02/18 05:20:27;;;;;;;10.57;6.83;;;11.10;1.00;;;;;;6315219;22;20410;-87
2023/02/18 05:22:53;;;;;;;9.63;6.47;;;11.10;1.00;;;;;;6314803;22;20921;-86
2023/02/18 05:25:18;;;;;;;8.13;6.10;;;11.10;1.00;;;;;;6314038;22;20386;-86
2023/02/18 05:27:46;;;;;;;9.37;6.47;;;11.10;1.00;;;;;;6317466;22;20205;-87
2023/02/18 05:30:20;;;;;;;10.33;6.60;;;11.10;1.00;;;;;;6317061;22;20180;-86
2023/02/18 05:32:45;;;;;;;9.27;6.30;;;11.10;1.00;;;;;;6316880;22;20350;-86
2023/02/18 05:35:12;;;;;;;9.10;6.60;;;11.10;1.00;;;;;;6317220;22;20904;-86
2023/02/18 05:37:37;;;;;;;8.73;5.80;;;11.10;1.00;;;;;;6312894;22;20215;-87
2023/02/18 05:40:06;;;;;;;8.23;5.50;;;11.00;1.00;;;;;;6315395;22;20412;-86
2023/02/18 05:42:32;;;;;;;8.07;4.93;;;11.00;1.00;;;;;;6318276;22;20798;-86
2023/02/18 05:45:00;;;;;;;8.20;5.23;;;11.00;1.00;;;;;;6316867;22;20378;-86
2023/02/18 05:47:30;;;;;;;6.50;5.30;;;11.00;1.00;;;;;;6318030;22;20167;-85
2023/02/18 05:49:58;;;;;;;5.73;4.40;;;11.00;1.00;;;;;;6319346;22;21157;-86
2023/02/18 05:52:28;;;;;;;5.40;4.63;;;11.00;1.00;;;;;;6316179;22;20396;-86
2023/02/18 05:55:06;;;;;;;5.60;3.67;;;11.00;1.00;;;;;;6314607;22;20358;-86
2023/02/18 05:57:52;;;;;;;6.13;4.47;;;11.10;1.00;;;;;;6316971;22;20378;-86
2023/02/18 06:00:32;;;;;;;;;;;;;;;;;;;;;
2023/02/18 06:02:58;;;;;;;4.07;3.40;;;11.10;1.00;;;;;;6317125;22;20386;-86
2023/02/18 06:05:26;;;;;;;4.50;3.80;;;11.10;1.00;;;;;;6317644;22;20374;-86
2023/02/18 06:10:39;;;;;;;3.80;2.73;;;11.10;1.00;;;;;;6309188;22;20791;-86
2023/02/18 06:13:09;;;;;;;4.43;3.27;;;11.10;1.00;;;;;;6316476;22;20381;-86
2023/02/18 06:15:37;;;;;;;5.17;3.07;;;11.10;1.00;;;;;;6318012;22;20394;-86
2023/02/18 06:18:09;;;;;;;4.70;3.47;;;11.10;1.00;;;;;;6316121;22;20366;-86
2023/02/18 06:20:35;;;;;;;3.70;2.80;;;11.20;1.00;;;;;;6317701;22;20398;-88
2023/02/18 06:23:21;;;;;;;3.50;3.00;;;11.20;1.00;;;;;;6324017;22;20378;-85
2023/02/18 06:26:03;;;;;;;;;;;;;;;;;;;;;
2023/02/18 06:28:44;;;;;;;;;;;;;;;;;;;;;
2023/02/18 06:31:21;;;;;;;3.03;2.50;;;11.20;1.00;;;;;;6320499;22;20849;-86
2023/02/18 06:34:09;;;;;;;3.30;2.57;;;11.20;1.00;;;;;;6315540;22;20437;-86
2023/02/18 06:36:45;;;;;;;3.07;2.37;;;11.20;1.00;;;;;;6310612;22;20394;-86
2023/02/18 06:39:11;;;;;;;3.50;2.80;;;11.20;1.00;;;;;;6313720;22;20381;-86
2023/02/18 06:41:36;;;;;;;3.20;2.57;;;11.20;1.00;;;;;;6314074;22;20398;-86
2023/02/18 06:44:35;;;;;;;;;;;;;;;;;;;;;
2023/02/18 06:47:42;;;;;;;3.60;2.90;;;11.30;1.00;;;;;;6313625;22;20156;-86
2023/02/18 06:50:28;;;;;;;3.90;2.80;;;11.30;1.00;;;;;;6314120;22;20429;-86
2023/02/18 06:53:36;;;;;;;;;;;;;;;;;;;;;
2023/02/18 06:56:19;;;;;;;3.90;2.33;;;11.30;1.00;;;;;;6313486;22;20409;-86
2023/02/18 06:59:16;;;;;;;3.10;2.40;;;11.30;1.00;;;;;;6312532;22;20374;-86
2023/02/18 07:02:05;;;;;;;2.63;2.30;;;11.30;1.00;;;;;;6312999;22;20398;-86
2023/02/18 07:04:31;;;;;;;3.30;2.20;;;11.40;1.00;;;;;;6311252;22;20855;-85
2023/02/18 07:06:59;;;;;;;2.47;1.90;;;11.40;1.00;;;;;;6312698;22;20394;-85
2023/02/18 07:09:32;;;;;;;2.50;2.20;;;11.40;1.00;;;;;;6310871;22;20179;-86
2023/02/18 07:12:06;;;;;;;2.90;1.90;;;11.50;1.00;;;;;;6313260;22;20347;-85
2023/02/18 07:14:51;;;;;;;2.33;1.97;;;11.40;99.90;;;;;;6312722;22;20358;-85
2023/02/18 07:17:26;;;;;;;2.60;1.90;;;11.50;99.90;;;;;;6313100;22;20825;-86
2023/02/18 07:19:54;;;;;;;3.20;2.07;;;11.50;99.90;;;;;;6310612;22;20402;-86
2023/02/18 07:22:25;;;;;;;2.80;2.30;;;11.50;99.90;;;;;;6308751;22;20473;-86
2023/02/18 07:24:54;;;;;;;3.27;2.57;;;11.50;99.90;;;;;;6312117;22;20355;-85
2023/02/18 07:27:21;;;;;;;5.47;2.63;;;11.50;99.90;;;;;;6311694;22;20708;-86
2023/02/18 07:29:49;;;;;;;4.30;2.43;;;11.40;1.00;;;;;;6310511;22;20501;-88
2023/02/18 07:32:20;;;;;;;3.97;2.37;;;11.40;99.90;;;;;;6312209;22;20659;-85
2023/02/18 07:34:45;;;;;;;2.90;2.40;;;11.50;99.90;;;;;;6314383;22;20355;-86
2023/02/18 07:37:23;;;;;;;2.90;2.07;;;11.60;99.90;;;;;;6310812;22;20366;-85
2023/02/18 07:39:48;;;;;;;2.30;1.90;;;11.70;99.90;;;;;;6311798;22;20239;-87
2023/02/18 07:42:14;;;;;;;2.47;2.00;;;11.70;99.90;;;;;;6311630;22;20407;-85
2023/02/18 07:44:40;;;;;;;2.70;1.87;;;11.60;99.90;;;;;;6312243;22;20182;-85
2023/02/18 07:47:11;;;;;;;2.63;1.87;;;11.50;99.90;;;;;;6311246;22;20162;-85
2023/02/18 07:49:36;;;;;;;3.10;2.23;;;11.40;99.90;;;;;;6285771;22;20410;-86
2023/02/18 07:52:02;;;;;;;5.00;1.90;;;11.30;99.90;;;;;;6313535;22;20451;-85
2023/02/18 07:54:27;;;;;;;3.50;2.50;;;11.20;99.90;;;;;;6311834;22;20205;-85
2023/02/18 07:56:56;;;;;;;3.83;2.57;;;11.10;99.90;;;;;;6312672;22;20146;-87
2023/02/18 07:59:22;;;;;;;3.87;2.27;;;11.10;1.00;;;;;;6311436;22;20190;-85
2023/02/18 08:01:47;;;;;;;5.80;2.20;;;11.00;1.00;;;;;;6313745;22;20366;-86
2023/02/18 08:04:14;;;;;;;5.40;2.87;;;11.00;1.00;;;;;;6313218;22;20163;-85
2023/02/18 08:06:47;;;;;;;5.87;2.90;;;10.90;1.00;;;;;;6312923;22;20163;-86
2023/02/18 08:09:14;;;;;;;7.63;2.80;;;10.90;1.00;;;;;;6314432;22;20377;-85
2023/02/18 08:11:49;;;;;;;;;;;;;;;;;;;;;
2023/02/18 08:14:15;;;;;;;4.77;2.73;;;10.80;1.00;;;;;;6312640;22;20367;-85
2023/02/18 08:16:43;;;;;;;9.23;3.83;;;10.80;1.00;;;;;;6312524;22;20378;-85
2023/02/18 08:19:15;;;;;;;6.05;3.55;;;10.80;1.00;;;;;;6312945;22;20366;-86
2023/02/18 08:22:10;;;;;;;11.00;3.93;;;10.90;1.00;;;;;;6306443;22;20132;-86
2023/02/18 08:24:44;;;;;;;8.90;2.97;;;10.90;1.00;;;;;;6304190;22;20472;-86
2023/02/18 08:27:15;;;;;;;12.73;4.07;;;10.90;1.00;;;;;;6303949;22;20370;-86
2023/02/18 08:29:43;;;;;;;7.60;2.90;;;10.90;99.90;;;;;;6305253;22;20752;-86
2023/02/18 08:35:31;;;;;;;9.20;2.80;;;11.10;99.90;;;;;;6298608;22;20382;-86
2023/02/18 08:38:19;;;;;;;6.57;2.67;;;11.20;99.90;;;;;;6307443;22;20688;-86
2023/02/18 08:40:45;;;;;;;7.67;3.50;;;11.30;99.90;;;;;;6303259;22;20409;-86
2023/02/18 08:46:27;;;;;;;7.40;2.73;;;11.40;99.90;;;;;;6294327;22;20401;-86
2023/02/18 08:49:12;;;;;;;8.93;3.13;;;11.40;1.00;;;;;;6305453;22;20389;-87
2023/02/18 08:51:49;;;;;;;8.33;2.90;;;11.50;1.00;;;;;;6306624;22;20418;-87
2023/02/18 08:54:53;;;;;;;;;;;;;;;;;;;;;
2023/02/18 08:57:34;;;;;;;7.30;2.80;;;11.50;1.00;;;;;;6304266;22;20916;-88
2023/02/18 09:00:15;;;;;;;7.63;3.40;;;11.50;99.90;;;;;;6304163;22;20454;-86
2023/02/18 09:03:05;;;;;;;7.93;2.63;;;11.60;16.90;;;;;;6304798;22;20378;-88
2023/02/18 09:05:48;;;;;;;8.33;2.70;;;11.60;1.00;;;;;;6306716;22;20378;-88
2023/02/18 09:12:14;;;;;;;;;;;;;;;;;;;;;
2023/02/18 09:14:48;;;;;;;;;;;;;;;;;;;;;
2023/02/18 09:17:36;;;;;;;5.30;2.40;;;12.00;99.90;;;;;;6307147;22;20928;-88
2023/02/18 09:23:58;;;;;;;7.47;3.00;;;12.40;1.00;;;;;;6273357;22;20477;-88
2023/02/18 09:26:55;;;;;;;5.33;2.80;;;12.50;99.90;;;;;;6292015;22;20397;-85
2023/02/18 09:45:23;;;;;;;11.87;3.00;;;13.30;99.90;;;;;;6265349;22;20450;-86
2023/02/18 09:54:55;;;;;;;6.47;2.57;;;13.40;1.00;;;;;;6272962;22;20448;-86
2023/02/18 10:04:43;;;;;;;7.00;2.90;;;13.00;1.00;;;;;;6170688;23;20416;-86
2023/02/18 10:07:46;;;;;;;9.00;2.60;;;12.80;1.00;;;;;;6157167;23;20736;-87
2023/02/18 10:14:16;;;;;;;8.63;2.60;;;12.70;95.20;;;;;;6161884;22;20452;-88
2023/02/18 10:23:36;;;;;;;8.30;4.10;;;12.60;99.90;;;;;;6257819;22;20379;-87
2023/02/18 10:26:20;;;;;;;8.77;3.90;;;12.50;1.00;;;;;;6284186;22;20462;-87
2023/02/18 10:29:28;;;;;;;;;;;;;;;;;;;;;
2023/02/18 10:33:09;;;;;;;7.97;3.40;;;12.30;1.00;;;;;;6294675;22;20441;-86
2023/02/18 10:39:12;;;;;;;10.13;4.67;;;12.20;99.90;;;;;;6252273;22;20379;-86
2023/02/18 10:42:07;;;;;;;11.17;4.07;;;12.10;99.90;;;;;;6274374;22;20624;-86
2023/02/18 10:45:27;;;;;;;5.17;3.50;;;12.00;99.90;;;;;;6271151;22;20403;-86
2023/02/18 10:48:12;;;;;;;15.23;3.67;;;11.90;1.00;;;;;;6167895;23;20481;-86
2023/02/18 10:51:10;;;;;;;;;;;;;;;;;;;;;
2023/02/18 10:54:03;;;;;;;9.13;3.37;;;11.80;99.90;;;;;;6267777;22;20411;-86
2023/02/18 11:00:32;;;;;;;5.60;3.00;;;11.80;1.00;;;;;;6181131;23;20409;-86
2023/02/18 11:10:41;;;;;;;7.43;4.27;;;11.60;99.90;;;;;;6050694;23;20789;-87
2023/02/18 11:13:35;;;;;;;4.67;4.00;;;11.60;99.90;;;;;;6157116;23;20382;-86
2023/02/18 11:20:22;;;;;;;10.20;4.50;;;11.60;99.90;;;;;;6242766;22;20398;-87
2023/02/18 11:23:08;;;;;;;8.70;4.23;;;11.60;99.90;;;;;;6272171;22;20433;-86
2023/02/18 11:32:38;;;;;;;8.33;4.20;;;11.40;1.00;;;;;;6247105;22;20394;-86
2023/02/18 11:35:49;;;;;;;;;;;;;;;;;;;;;
2023/02/18 11:38:27;;;;;;;6.60;3.70;;;11.50;1.00;;;;;;6275797;22;20422;-85
2023/02/18 11:41:29;;;;;;;7.20;5.00;;;11.50;1.00;;;;;;6273548;22;20410;-86
2023/02/18 11:44:20;;;;;;;5.33;4.27;;;11.40;1.00;;;;;;6261576;22;20379;-86
2023/02/18 11:47:24;;;;;;;6.57;5.07;;;11.40;1.00;;;;;;6275788;22;20390;-87
2023/02/18 11:53:36;;;;;;;7.43;4.63;;;11.40;1.00;;;;;;6215848;22;20803;-86
2023/02/18 11:56:19;;;;;;;9.10;5.87;;;11.30;1.00;;;;;;6276289;22;20359;-86
2023/02/18 12:02:28;;;;;;;11.03;6.13;;;11.50;1.00;;;;;;6259545;22;20383;-86
2023/02/18 12:08:08;;;;;;;6.73;5.53;;;11.60;1.00;;;;;;6259438;22;20397;-86
2023/02/18 12:11:03;;;;;;;9.63;5.33;;;11.60;1.00;;;;;;6273920;22;20571;-86
2023/02/18 12:13:57;;;;;;;8.70;5.90;;;11.60;1.00;;;;;;6267502;22;20445;-86
2023/02/18 12:16:23;;;;;;;7.37;5.20;;;11.60;1.00;;;;;;6253333;22;20394;-86
2023/02/18 12:19:13;;;;;;;10.63;6.33;;;11.60;1.00;;;;;;6274772;22;20434;-86
2023/02/18 12:22:13;;;;;;;8.53;5.50;;;11.70;1.00;;;;;;6274871;22;20156;-86
2023/02/18 12:25:16;;;;;;;6.93;5.30;;;11.70;1.00;;;;;;6280493;22;20351;-87
2023/02/18 12:27:57;;;;;;;;;;;;;;;;;;;;;
2023/02/18 12:30:43;;;;;;;7.50;4.67;;;11.70;1.00;;;;;;6293365;22;20422;-87
2023/02/18 12:33:35;;;;;;;11.43;5.10;;;11.80;1.00;;;;;;6286634;22;20394;-86
2023/02/18 12:36:04;;;;;;;9.43;4.30;;;11.80;1.00;;;;;;6285039;22;20676;-87
2023/02/18 12:38:44;;;;;;;7.93;5.80;;;11.80;1.00;;;;;;6275940;22;20500;-86
2023/02/18 12:41:47;;;;;;;7.83;4.93;;;11.90;1.00;;;;;;6275530;22;20423;-86
2023/02/18 12:44:42;;;;;;;8.20;6.30;;;11.90;1.00;;;;;;6272879;22;20406;-86
2023/02/18 12:48:27;;;;;;;8.17;5.40;;;11.90;1.00;;;;;;6273081;22;20352;-89
2023/02/18 12:51:24;;;;;;;8.97;5.43;;;11.90;1.00;;;;;;6273537;22;20803;-86
2023/02/18 12:54:01;;;;;;;6.87;4.83;;;11.90;1.00;;;;;;6274585;22;20765;-87
2023/02/18 12:57:09;;;;;;;7.87;6.00;;;11.90;1.00;;;;;;6275198;22;20375;-87
2023/02/18 13:00:00;;;;;;;9.97;6.53;;;11.80;1.00;;;;;;6252270;22;20885;-86
2023/02/18 13:03:05;;;;;;;11.17;6.97;;;11.90;1.00;;;;;;6274891;22;20751;-87
2023/02/18 13:06:26;;;;;;;10.30;5.70;;;11.90;1.00;;;;;;6275113;22;20362;-87
2023/02/18 13:09:17;;;;;;;;;;;;;;;;;;;;;
2023/02/18 13:11:56;;;;;;;10.73;6.43;;;11.70;1.00;;;;;;6278095;22;20489;-86
2023/02/18 13:14:30;;;;;;;11.30;5.90;;;11.70;1.00;;;;;;6277514;22;20429;-86
2023/02/18 13:17:01;;;;;;;13.93;6.27;;;11.60;1.00;;;;;;6276032;22;20358;-85
2023/02/18 13:19:43;;;;;;;8.23;6.50;;;11.60;1.00;;;;;;6275811;22;20398;-86
2023/02/18 13:22:14;;;;;;;10.07;6.17;;;11.50;1.00;;;;;;6276592;22;20774;-87
2023/02/18 13:24:46;;;;;;;9.80;6.20;;;11.50;1.00;;;;;;6276652;22;20398;-87
2023/02/18 13:27:37;;;;;;;8.17;5.67;;;11.50;1.00;;;;;;6274390;22;20403;-86
2023/02/18 13:30:18;;;;;;;9.13;5.00;;;11.50;1.00;;;;;;6276089;22;20457;-87
2023/02/18 13:32:57;;;;;;;7.00;5.10;;;11.50;1.00;;;;;;6292013;22;20424;-88
2023/02/18 13:35:44;;;;;;;6.40;5.20;;;11.60;1.00;;;;;;6299044;22;20377;-86
2023/02/18 13:38:43;;;;;;;8.40;4.83;;;11.60;1.00;;;;;;6283037;22;20398;-85
2023/02/18 13:41:09;;;;;;;12.40;4.90;;;11.60;1.00;;;;;;6280675;22;20399;-86
2023/02/18 13:43:35;;;;;;;5.50;4.30;;;11.60;1.00;;;;;;6281239;22;20371;-86
2023/02/18 13:46:09;;;;;;;6.47;5.77;;;11.60;1.00;;;;;;6250783;23;20291;-86
2023/02/18 13:49:02;;;;;;;6.23;5.20;;;11.60;1.00;;;;;;6223774;23;20375;-86
2023/02/18 13:51:32;;;;;;;5.20;4.70;;;11.60;1.00;;;;;;6250400;23;20427;-86
2023/02/18 13:54:15;;;;;;;8.07;5.03;;;11.60;1.00;;;;;;6222399;23;20364;-86
2023/02/18 13:56:53;;;;;;;12.53;4.93;;;11.60;1.00;;;;;;6251918;23;20409;-85
2023/02/18 13:59:40;;;;;;;7.13;5.23;;;11.50;1.00;;;;;;6254778;22;20366;-86
2023/02/18 14:02:24;;;;;;;6.37;4.97;;;11.60;1.00;;;;;;6253487;23;20829;-86
2023/02/18 14:05:13;;;;;;;6.20;4.63;;;11.60;1.00;;;;;;6253708;23;20384;-86
2023/02/18 14:07:49;;;;;;;6.20;4.53;;;11.70;1.00;;;;;;6226364;23;20375;-86
2023/02/18 14:10:20;;;;;;;7.47;4.90;;;11.70;1.00;;;;;;6252689;22;20426;-85
2023/02/18 14:12:55;;;;;;;5.37;4.30;;;11.60;1.00;;;;;;6252333;23;20406;-86
2023/02/18 14:15:21;;;;;;;6.47;4.83;;;11.60;1.00;;;;;;6253143;23;20375;-86
2023/02/18 14:18:01;;;;;;;8.40;6.13;;;11.60;1.00;;;;;;6252851;23;20426;-85
2023/02/18 14:20:32;;;;;;;7.20;5.07;;;11.70;1.00;;;;;;6254032;22;20185;-85
2023/02/18 14:22:58;;;;;;;5.73;4.70;;;11.70;1.00;;;;;;6253844;23;20375;-86
2023/02/18 14:25:35;;;;;;;9.17;5.30;;;11.70;1.00;;;;;;6253462;23;20399;-86
2023/02/18 14:28:23;;;;;;;7.00;5.20;;;11.70;1.00;;;;;;6251590;23;20142;-86
2023/02/18 14:30:50;;;;;;;7.77;5.23;;;11.70;1.00;;;;;;6225393;23;20435;-87
2023/02/18 14:33:18;;;;;;;9.30;5.93;;;11.70;1.00;;;;;;6252517;23;20692;-85
2023/02/18 14:35:55;;;;;;;7.30;4.80;;;11.60;1.00;;;;;;6225576;23;20438;-86
2023/02/18 14:38:27;;;;;;;7.87;5.33;;;11.60;1.00;;;;;;6224553;23;20383;-86
2023/02/18 14:40:58;;;;;;;8.43;5.80;;;11.50;1.00;;;;;;6225554;23;20410;-86
2023/02/18 14:43:36;;;;;;;8.13;4.97;;;11.50;1.00;;;;;;6250125;23;20463;-85
2023/02/18 14:46:14;;;;;;;9.73;5.80;;;11.50;1.00;;;;;;6251625;23;20372;-86
2023/02/18 14:49:01;;;;;;;6.50;5.70;;;11.50;1.00;;;;;;6253212;23;20348;-86
2023/02/18 14:51:30;;;;;;;10.70;6.20;;;11.50;1.00;;;;;;6252515;23;20438;-86
2023/02/18 14:54:04;;;;;;;8.80;6.47;;;11.50;1.00;;;;;;6224799;23;20380;-86
2023/02/18 14:56:31;;;;;;;8.47;5.30;;;11.50;1.00;;;;;;6248105;23;21106;-86
2023/02/18 14:59:01;;;;;;;9.10;6.03;;;11.50;1.00;;;;;;6223515;23;20407;-86
2023/02/18 15:01:31;;;;;;;12.80;6.40;;;11.50;1.00;;;;;;6249430;23;20376;-86
2023/02/18 15:03:57;;;;;;;9.80;6.80;;;11.50;1.00;;;;;;6251524;23;20360;-86
2023/02/18 15:06:31;;;;;;;11.07;6.97;;;11.50;1.00;;;;;;6251116;23;20372;-86
2023/02/18 15:09:33;;;;;;;7.77;6.50;;;11.50;1.00;;;;;;6250602;23;20133;-86
2023/02/18 15:12:05;;;;;;;9.80;6.80;;;11.60;1.00;;;;;;6180449;23;20395;-87
2023/02/18 15:14:39;;;;;;;7.87;5.90;;;11.60;1.00;;;;;;6247117;23;20711;-87
2023/02/18 15:17:12;;;;;;;7.90;6.07;;;11.60;1.00;;;;;;6245986;23;20823;-87
2023/02/18 15:19:44;;;;;;;9.33;5.67;;;11.60;1.00;;;;;;6248160;22;20423;-85
2023/02/18 15:22:23;;;;;;;6.90;5.00;;;11.60;1.00;;;;;;6250619;23;20368;-86
2023/02/18 15:24:50;;;;;;;8.07;5.40;;;11.60;1.00;;;;;;6225175;23;20952;-86
2023/02/18 15:27:23;;;;;;;7.90;5.57;;;11.60;1.00;;;;;;6225267;23;20380;-86
2023/02/18 15:30:16;;;;;;;6.00;5.40;;;11.60;1.00;;;;;;6251150;22;20392;-86
2023/02/18 15:32:49;;;;;;;7.50;4.87;;;11.60;1.00;;;;;;6251089;23;20394;-86
2023/02/18 15:35:18;;;;;;;7.53;5.50;;;11.60;1.00;;;;;;6251902;23;20352;-86
2023/02/18 15:37:45;;;;;;;8.83;5.53;;;11.50;1.00;;;;;;6250891;23;20704;-83
2023/02/18 15:40:17;;;;;;;5.97;5.37;;;11.50;1.00;;;;;;6252444;22;20399;-84
2023/02/18 15:42:48;;;;;;;9.70;5.50;;;11.50;1.00;;;;;;6254126;23;20436;-84
2023/02/18 15:45:29;;;;;;;6.80;5.23;;;11.50;1.00;;;;;;6274947;22;20395;-84
2023/02/18 15:47:57;;;;;;;7.23;5.57;;;11.50;1.00;;;;;;6276776;22;20375;-84
2023/02/18 15:50:30;;;;;;;5.90;5.30;;;11.40;1.00;;;;;;6278331;22;20429;-84
2023/02/18 15:52:59;;;;;;;6.30;5.40;;;11.50;1.00;;;;;;6275596;22;20371;-84
2023/02/18 15:55:29;;;;;;;5.63;4.47;;;11.50;1.00;;;;;;6276131;22;20390;-85